sensor_id;sensor_type;location;lat;lon;timestamp;pressure;altitude;pressure_sealevel;temperature;humidity
60244;BME280;46106;51.468;5.814;2023-02-02T00:01:40;101785.72;;;7.55;100.00
60244;BME280;46106;51.468;5.814;2023-02-02T00:04:07;101799.84;;;7.63;100.00
60244;BME280;46106;51.468;5.814;2023-02-02T00:06:33;101791.44;;;7.68;100.00
60244;BME280;46106;51.468;5.814;2023-02-02T00:09:00;101786.06;;;7.66;100.00
60244;BME280;46106;51.468;5.814;2023-02-02T00:11:26;101789.16;;;7.59;100.00
60244;BME280;46106;51.468;5.814;2023-02-02T00:13:52;101796.63;;;7.55;100.00
60244;BME280;46106;51.468;5.814;2023-02-02T00:18:54;101776.03;;;7.49;100.00
60244;BME280;46106;51.468;5.814;2023-02-02T00:21:20;101790.22;;;7.56;100.00
60244;BME280;46106;51.468;5.814;2023-02-02T00:23:46;101782.13;;;7.54;100.00
60244;BME280;46106;51.468;5.814;2023-02-02T00:26:11;101759.09;;;7.43;100.00
60244;BME280;46106;51.468;5.814;2023-02-02T00:28:37;101782.19;;;7.53;100.00
60244;BME280;46106;51.468;5.814;2023-02-02T00:31:02;101762.41;;;7.49;100.00
60244;BME280;46106;51.468;5.814;2023-02-02T00:33:28;101786.22;;;7.63;100.00
60244;BME280;46106;51.468;5.814;2023-02-02T00:35:53;101792.59;;;7.62;100.00
60244;BME280;46106;51.468;5.814;2023-02-02T00:38:19;101791.81;;;7.60;100.00
60244;BME280;46106;51.468;5.814;2023-02-02T00:40:45;101797.50;;;7.55;100.00
60244;BME280;46106;51.468;5.814;2023-02-02T00:43:10;101798.88;;;7.64;100.00
60244;BME280;46106;51.468;5.814;2023-02-02T00:45:36;101803.59;;;7.61;100.00
60244;BME280;46106;51.468;5.814;2023-02-02T00:48:02;101804.97;;;7.69;100.00
60244;BME280;46106;51.468;5.814;2023-02-02T00:50:28;101811.31;;;7.70;100.00
60244;BME280;46106;51.468;5.814;2023-02-02T00:52:53;101785.00;;;7.51;100.00
60244;BME280;46106;51.468;5.814;2023-02-02T00:55:19;101801.84;;;7.60;100.00
60244;BME280;46106;51.468;5.814;2023-02-02T00:57:46;101811.31;;;7.70;100.00
60244;BME280;46106;51.468;5.814;2023-02-02T01:00:17;101810.34;;;7.71;100.00
60244;BME280;46106;51.468;5.814;2023-02-02T01:02:43;101820.91;;;7.77;100.00
60244;BME280;46106;51.468;5.814;2023-02-02T01:05:11;101825.50;;;7.77;100.00
60244;BME280;46106;51.468;5.814;2023-02-02T01:07:37;101798.97;;;7.63;100.00
60244;BME280;46106;51.468;5.814;2023-02-02T01:10:03;101807.84;;;7.66;100.00
60244;BME280;46106;51.468;5.814;2023-02-02T01:12:29;101805.59;;;7.57;100.00
60244;BME280;46106;51.468;5.814;2023-02-02T01:14:54;101803.59;;;7.61;100.00
60244;BME280;46106;51.468;5.814;2023-02-02T01:17:19;101790.47;;;7.51;100.00
60244;BME280;46106;51.468;5.814;2023-02-02T01:19:45;101817.00;;;7.65;100.00
60244;BME280;46106;51.468;5.814;2023-02-02T01:22:10;101802.34;;;7.68;100.00
60244;BME280;46106;51.468;5.814;2023-02-02T01:24:36;101812.09;;;7.72;100.00
60244;BME280;46106;51.468;5.814;2023-02-02T01:27:01;101799.75;;;7.65;100.00
60244;BME280;46106;51.468;5.814;2023-02-02T01:29:27;101819.97;;;7.78;100.00
60244;BME280;46106;51.468;5.814;2023-02-02T01:31:52;101808.44;;;7.73;100.00
60244;BME280;46106;51.468;5.814;2023-02-02T01:34:18;101799.75;;;7.65;100.00
60244;BME280;46106;51.468;5.814;2023-02-02T01:36:43;101817.25;;;7.78;100.00
60244;BME280;46106;51.468;5.814;2023-02-02T01:39:09;101812.59;;;7.80;100.00
60244;BME280;46106;51.468;5.814;2023-02-02T01:41:35;101809.53;;;7.86;100.00
60244;BME280;46106;51.468;5.814;2023-02-02T01:44:05;101826.13;;;7.82;100.00
60244;BME280;46106;51.468;5.814;2023-02-02T01:46:35;101814.19;;;7.84;100.00
60244;BME280;46106;51.468;5.814;2023-02-02T01:49:09;101811.31;;;7.87;100.00
60244;BME280;46106;51.468;5.814;2023-02-02T01:51:52;101824.94;;;7.87;100.00
60244;BME280;46106;51.468;5.814;2023-02-02T01:54:37;101818.44;;;7.90;100.00
60244;BME280;46106;51.468;5.814;2023-02-02T01:57:19;101814.03;;;7.87;100.00
60244;BME280;46106;51.468;5.814;2023-02-02T01:59:48;101810.09;;;7.93;100.00
60244;BME280;46106;51.468;5.814;2023-02-02T02:02:15;101798.47;;;7.89;100.00
60244;BME280;46106;51.468;5.814;2023-02-02T02:04:41;101808.09;;;7.97;100.00
60244;BME280;46106;51.468;5.814;2023-02-02T02:07:08;101794.97;;;7.87;100.00
60244;BME280;46106;51.468;5.814;2023-02-02T02:09:34;101812.75;;;7.95;100.00
60244;BME280;46106;51.468;5.814;2023-02-02T02:11:59;101816.19;;;7.98;100.00
60244;BME280;46106;51.468;5.814;2023-02-02T02:14:26;101804.00;;;7.88;100.00
60244;BME280;46106;51.468;5.814;2023-02-02T02:31:58;101800.81;;;7.97;100.00
60244;BME280;46106;51.468;5.814;2023-02-02T02:34:47;101815.31;;;7.98;100.00
60244;BME280;46106;51.468;5.814;2023-02-02T02:37:30;101813.72;;;7.94;100.00
60244;BME280;46106;51.468;5.814;2023-02-02T02:40:05;101815.31;;;7.98;100.00
60244;BME280;46106;51.468;5.814;2023-02-02T02:42:36;101810.03;;;7.95;100.00
60244;BME280;46106;51.468;5.814;2023-02-02T02:45:04;101815.06;;;7.85;100.00
60244;BME280;46106;51.468;5.814;2023-02-02T02:47:32;101815.16;;;7.83;100.00
60244;BME280;46106;51.468;5.814;2023-02-02T02:49:59;101817.88;;;7.83;100.00
60244;BME280;46106;51.468;5.814;2023-02-02T02:52:24;101818.66;;;7.85;100.00
60244;BME280;46106;51.468;5.814;2023-02-02T02:54:54;101816.53;;;7.92;100.00
60244;BME280;46106;51.468;5.814;2023-02-02T03:05:51;101815.22;;;7.82;100.00
60244;BME280;46106;51.468;5.814;2023-02-02T03:08:31;101819.56;;;7.86;100.00
60244;BME280;46106;51.468;5.814;2023-02-02T03:10:59;101825.19;;;8.00;100.00
60244;BME280;46106;51.468;5.814;2023-02-02T03:13:27;101820.78;;;7.98;100.00
60244;BME280;46106;51.468;5.814;2023-02-02T03:15:53;101807.28;;;7.95;100.00
60244;BME280;46106;51.468;5.814;2023-02-02T03:18:20;101811.88;;;7.94;100.00
60244;BME280;46106;51.468;5.814;2023-02-02T03:20:47;101807.75;;;7.85;100.00
60244;BME280;46106;51.468;5.814;2023-02-02T03:23:13;101813.97;;;7.89;100.00
60244;BME280;46106;51.468;5.814;2023-02-02T03:25:38;101816.22;;;7.81;100.00
60244;BME280;46106;51.468;5.814;2023-02-02T03:28:05;101809.84;;;7.80;100.00
60244;BME280;46106;51.468;5.814;2023-02-02T03:30:31;101824.03;;;7.87;100.00
60244;BME280;46106;51.468;5.814;2023-02-02T03:32:57;101812.19;;;7.88;100.00
60244;BME280;46106;51.468;5.814;2023-02-02T03:35:23;101802.72;;;7.78;100.00
60244;BME280;46106;51.468;5.814;2023-02-02T03:37:50;101809.13;;;7.77;100.00
60244;BME280;46106;51.468;5.814;2023-02-02T03:40:15;101805.84;;;7.70;100.00
60244;BME280;46106;51.468;5.814;2023-02-02T03:42:41;101810.69;;;7.82;100.00
60244;BME280;46106;51.468;5.814;2023-02-02T03:45:07;101809.84;;;7.80;100.00
60244;BME280;46106;51.468;5.814;2023-02-02T03:47:32;101810.19;;;7.74;100.00
60244;BME280;46106;51.468;5.814;2023-02-02T03:49:58;101821.81;;;7.78;100.00
60244;BME280;46106;51.468;5.814;2023-02-02T03:52:24;101818.38;;;7.74;100.00
60244;BME280;46106;51.468;5.814;2023-02-02T03:54:49;101812.75;;;7.77;100.00
60244;BME280;46106;51.468;5.814;2023-02-02T03:57:15;101822.69;;;7.78;100.00
60244;BME280;46106;51.468;5.814;2023-02-02T03:59:41;101818.44;;;7.72;100.00
60244;BME280;46106;51.468;5.814;2023-02-02T04:02:06;101823.97;;;7.71;100.00
60244;BME280;46106;51.468;5.814;2023-02-02T04:04:32;101829.28;;;7.74;100.00
60244;BME280;46106;51.468;5.814;2023-02-02T04:06:57;101830.94;;;7.77;100.00
60244;BME280;46106;51.468;5.814;2023-02-02T04:09:23;101831.19;;;7.72;100.00
60244;BME280;46106;51.468;5.814;2023-02-02T04:11:49;101832.50;;;7.82;100.00
60244;BME280;46106;51.468;5.814;2023-02-02T04:14:14;101830.47;;;7.86;100.00
60244;BME280;46106;51.468;5.814;2023-02-02T04:16:40;101825.03;;;7.86;100.00
60244;BME280;46106;51.468;5.814;2023-02-02T04:19:05;101835.84;;;7.87;100.00
60244;BME280;46106;51.468;5.814;2023-02-02T04:21:31;101821.91;;;7.76;100.00
60244;BME280;46106;51.468;5.814;2023-02-02T04:23:57;101837.88;;;7.84;100.00
60244;BME280;46106;51.468;5.814;2023-02-02T04:26:22;101832.66;;;7.79;100.00
60244;BME280;46106;51.468;5.814;2023-02-02T04:28:51;101839.84;;;7.80;100.00
60244;BME280;46106;51.468;5.814;2023-02-02T04:31:17;101842.56;;;7.80;100.00
60244;BME280;46106;51.468;5.814;2023-02-02T04:33:42;101848.19;;;7.77;100.00
60244;BME280;46106;51.468;5.814;2023-02-02T04:36:08;101834.88;;;7.71;100.00
60244;BME280;46106;51.468;5.814;2023-02-02T04:38:35;101840.97;;;7.76;100.00
60244;BME280;46106;51.468;5.814;2023-02-02T04:41:08;101856.34;;;7.77;100.00
60244;BME280;46106;51.468;5.814;2023-02-02T04:43:35;101861.50;;;7.83;100.00
60244;BME280;46106;51.468;5.814;2023-02-02T04:46:00;101828.88;;;7.64;100.00
60244;BME280;46106;51.468;5.814;2023-02-02T04:48:26;101864.16;;;7.85;100.00
60244;BME280;46106;51.468;5.814;2023-02-02T04:53:27;101859.50;;;7.87;100.00
60244;BME280;46106;51.468;5.814;2023-02-02T04:55:53;101855.09;;;7.84;100.00
60244;BME280;46106;51.468;5.814;2023-02-02T04:58:19;101837.47;;;7.74;100.00
60244;BME280;46106;51.468;5.814;2023-02-02T05:03:21;101846.28;;;7.79;100.00
60244;BME280;46106;51.468;5.814;2023-02-02T05:05:46;101848.38;;;7.74;100.00
60244;BME280;46106;51.468;5.814;2023-02-02T05:08:12;101839.50;;;7.69;100.00
60244;BME280;46106;51.468;5.814;2023-02-02T05:10:41;101838.41;;;7.73;100.00
60244;BME280;46106;51.468;5.814;2023-02-02T05:13:07;101846.59;;;7.73;100.00
60244;BME280;46106;51.468;5.814;2023-02-02T05:15:34;101852.75;;;7.77;100.00
60244;BME280;46106;51.468;5.814;2023-02-02T05:17:59;101843.13;;;7.69;100.00
60244;BME280;46106;51.468;5.814;2023-02-02T05:20:25;101849.38;;;7.71;100.00
60244;BME280;46106;51.468;5.814;2023-02-02T05:22:50;101852.84;;;7.75;100.00
60244;BME280;46106;51.468;5.814;2023-02-02T05:25:16;101848.19;;;7.77;100.00
60244;BME280;46106;51.468;5.814;2023-02-02T05:27:43;101855.88;;;7.69;100.00
60244;BME280;46106;51.468;5.814;2023-02-02T05:30:10;101868.97;;;7.80;100.00
60244;BME280;46106;51.468;5.814;2023-02-02T05:32:36;101876.19;;;7.81;100.00
60244;BME280;46106;51.468;5.814;2023-02-02T05:35:01;101868.81;;;7.83;100.00
60244;BME280;46106;51.468;5.814;2023-02-02T05:37:27;101857.25;;;7.78;100.00
60244;BME280;46106;51.468;5.814;2023-02-02T05:39:52;101849.72;;;7.83;100.00
60244;BME280;46106;51.468;5.814;2023-02-02T05:42:18;101830.69;;;7.64;100.00
60244;BME280;46106;51.468;5.814;2023-02-02T05:44:43;101838.31;;;7.75;100.00
60244;BME280;46106;51.468;5.814;2023-02-02T05:47:09;101843.63;;;7.78;100.00
60244;BME280;46106;51.468;5.814;2023-02-02T05:49:34;101853.88;;;7.72;100.00
60244;BME280;46106;51.468;5.814;2023-02-02T05:51:59;101854.47;;;7.79;100.00
60244;BME280;46106;51.468;5.814;2023-02-02T05:54:25;101855.19;;;7.83;100.00
60244;BME280;46106;51.468;5.814;2023-02-02T05:56:58;101850.44;;;7.86;100.00
60244;BME280;46106;51.468;5.814;2023-02-02T05:59:50;101841.94;;;7.75;100.00
60244;BME280;46106;51.468;5.814;2023-02-02T06:02:15;101862.28;;;7.85;100.00
60244;BME280;46106;51.468;5.814;2023-02-02T06:04:40;101861.34;;;7.86;100.00
60244;BME280;46106;51.468;5.814;2023-02-02T06:07:06;101871.16;;;7.90;100.00
60244;BME280;46106;51.468;5.814;2023-02-02T06:09:31;101867.28;;;7.95;100.00
60244;BME280;46106;51.468;5.814;2023-02-02T06:11:57;101872.75;;;7.95;100.00
60244;BME280;46106;51.468;5.814;2023-02-02T06:14:22;101873.13;;;7.87;100.00
60244;BME280;46106;51.468;5.814;2023-02-02T06:16:48;101880.28;;;7.89;100.00
60244;BME280;46106;51.468;5.814;2023-02-02T06:19:13;101872.09;;;7.89;100.00
60244;BME280;46106;51.468;5.814;2023-02-02T06:21:39;101864.47;;;7.96;100.00
60244;BME280;46106;51.468;5.814;2023-02-02T06:24:04;101876.81;;;8.03;100.00
60244;BME280;46106;51.468;5.814;2023-02-02T06:26:30;101870.66;;;8.00;100.00
60244;BME280;46106;51.468;5.814;2023-02-02T06:28:55;101887.25;;;7.95;100.00
60244;BME280;46106;51.468;5.814;2023-02-02T06:31:21;101887.50;;;7.90;100.00
60244;BME280;46106;51.468;5.814;2023-02-02T06:36:44;101886.28;;;7.96;100.00
60244;BME280;46106;51.468;5.814;2023-02-02T06:39:10;101870.16;;;7.74;100.00
60244;BME280;46106;51.468;5.814;2023-02-02T06:41:36;101871.38;;;7.86;100.00
60244;BME280;46106;51.468;5.814;2023-02-02T06:44:02;101889.19;;;7.93;100.00
60244;BME280;46106;51.468;5.814;2023-02-02T06:46:27;101889.75;;;8.00;100.00
60244;BME280;46106;51.468;5.814;2023-02-02T06:48:53;101879.88;;;7.80;100.00
60244;BME280;46106;51.468;5.814;2023-02-02T06:51:18;101887.50;;;7.90;100.00
60244;BME280;46106;51.468;5.814;2023-02-02T06:53:47;101894.00;;;7.88;100.00
60244;BME280;46106;51.468;5.814;2023-02-02T06:56:52;101907.53;;;7.89;100.00
60244;BME280;46106;51.468;5.814;2023-02-02T06:59:21;101904.91;;;7.88;100.00
60244;BME280;46106;51.468;5.814;2023-02-02T07:02:10;101909.47;;;7.87;100.00
60244;BME280;46106;51.468;5.814;2023-02-02T07:04:52;101904.59;;;7.94;100.00
60244;BME280;46106;51.468;5.814;2023-02-02T07:07:30;101896.00;;;7.84;100.00
60244;BME280;46106;51.468;5.814;2023-02-02T07:09:56;101920.31;;;7.89;100.00
60244;BME280;46106;51.468;5.814;2023-02-02T07:12:32;101914.63;;;7.94;100.00
60244;BME280;46106;51.468;5.814;2023-02-02T07:14:57;101901.53;;;7.83;100.00
60244;BME280;46106;51.468;5.814;2023-02-02T07:17:23;101912.34;;;7.84;100.00
60244;BME280;46106;51.468;5.814;2023-02-02T07:19:49;101901.25;;;7.70;100.00
60244;BME280;46106;51.468;5.814;2023-02-02T07:22:14;101910.38;;;7.69;100.00
60244;BME280;46106;51.468;5.814;2023-02-02T07:24:40;101921.34;;;7.86;100.00
60244;BME280;46106;51.468;5.814;2023-02-02T07:27:05;101890.97;;;7.58;100.00
60244;BME280;46106;51.468;5.814;2023-02-02T07:29:31;101920.41;;;7.68;100.00
60244;BME280;46106;51.468;5.814;2023-02-02T07:31:57;101913.94;;;7.71;100.00
60244;BME280;46106;51.468;5.814;2023-02-02T07:34:22;101906.13;;;7.63;100.00
60244;BME280;46106;51.468;5.814;2023-02-02T07:36:48;101908.94;;;7.62;100.00
60244;BME280;46106;51.468;5.814;2023-02-02T07:39:13;101921.38;;;7.67;100.00
60244;BME280;46106;51.468;5.814;2023-02-02T07:41:39;101914.97;;;7.68;100.00
60244;BME280;46106;51.468;5.814;2023-02-02T07:44:05;101916.59;;;7.72;100.00
60244;BME280;46106;51.468;5.814;2023-02-02T07:46:31;101918.19;;;7.77;100.00
60244;BME280;46106;51.468;5.814;2023-02-02T07:48:57;101920.50;;;7.67;100.00
60244;BME280;46106;51.468;5.814;2023-02-02T07:51:23;101934.13;;;7.67;100.00
60244;BME280;46106;51.468;5.814;2023-02-02T07:53:51;101936.69;;;7.70;100.00
60244;BME280;46106;51.468;5.814;2023-02-02T07:56:19;101922.91;;;7.73;100.00
60244;BME280;46106;51.468;5.814;2023-02-02T07:58:45;101925.22;;;7.63;100.00
60244;BME280;46106;51.468;5.814;2023-02-02T08:01:13;101934.13;;;7.67;100.00
60244;BME280;46106;51.468;5.814;2023-02-02T08:03:39;101945.53;;;7.75;100.00
60244;BME280;46106;51.468;5.814;2023-02-02T08:06:14;101945.66;;;7.72;100.00
60244;BME280;46106;51.468;5.814;2023-02-02T08:08:40;101944.94;;;7.68;100.00
60244;BME280;46106;51.468;5.814;2023-02-02T08:11:08;101955.06;;;7.66;100.00
60244;BME280;46106;51.468;5.814;2023-02-02T08:13:34;101927.50;;;7.53;100.00
60244;BME280;46106;51.468;5.814;2023-02-02T08:16:00;101920.22;;;7.54;100.00
60244;BME280;46106;51.468;5.814;2023-02-02T08:18:25;101947.66;;;7.68;100.00
60244;BME280;46106;51.468;5.814;2023-02-02T08:20:51;101964.81;;;7.70;100.00
60244;BME280;46106;51.468;5.814;2023-02-02T08:23:17;101969.69;;;7.83;100.00
60244;BME280;46106;51.468;5.814;2023-02-02T08:25:51;101961.59;;;7.81;100.00
60244;BME280;46106;51.468;5.814;2023-02-02T08:28:17;101963.88;;;7.90;100.00
60244;BME280;46106;51.468;5.814;2023-02-02T08:30:42;101951.78;;;7.77;100.00
60244;BME280;46106;51.468;5.814;2023-02-02T08:33:08;101956.56;;;7.91;100.00
60244;BME280;46106;51.468;5.814;2023-02-02T08:35:33;101959.34;;;7.89;100.00
60244;BME280;46106;51.468;5.814;2023-02-02T08:37:58;101958.97;;;7.97;100.00
60244;BME280;46106;51.468;5.814;2023-02-02T08:40:27;101958.47;;;7.89;100.00
60244;BME280;46106;51.468;5.814;2023-02-02T08:42:53;101974.44;;;7.97;100.00
60244;BME280;46106;51.468;5.814;2023-02-02T08:45:19;101975.41;;;7.96;100.00
60244;BME280;46106;51.468;5.814;2023-02-02T08:47:46;101973.56;;;7.96;100.00
60244;BME280;46106;51.468;5.814;2023-02-02T08:50:12;101983.44;;;7.99;100.00
60244;BME280;46106;51.468;5.814;2023-02-02T08:52:37;101997.72;;;8.04;100.00
60244;BME280;46106;51.468;5.814;2023-02-02T08:55:03;102001.78;;;7.95;100.00
60244;BME280;46106;51.468;5.814;2023-02-02T08:57:28;101982.25;;;7.85;100.00
60244;BME280;46106;51.468;5.814;2023-02-02T08:59:57;101999.16;;;7.94;100.00
60244;BME280;46106;51.468;5.814;2023-02-02T09:02:22;102011.66;;;7.98;100.00
60244;BME280;46106;51.468;5.814;2023-02-02T09:04:48;102016.63;;;7.89;100.00
60244;BME280;46106;51.468;5.814;2023-02-02T09:07:13;102028.09;;;7.96;100.00
60244;BME280;46106;51.468;5.814;2023-02-02T09:09:38;102022.88;;;7.91;100.00
60244;BME280;46106;51.468;5.814;2023-02-02T09:12:04;102017.38;;;7.74;100.00
60244;BME280;46106;51.468;5.814;2023-02-02T09:14:29;102040.66;;;8.00;100.00
60244;BME280;46106;51.468;5.814;2023-02-02T09:16:55;102038.13;;;7.96;100.00
60244;BME280;46106;51.468;5.814;2023-02-02T09:19:20;102054.88;;;8.07;100.00
60244;BME280;46106;51.468;5.814;2023-02-02T09:21:48;102026.66;;;7.89;100.00
60244;BME280;46106;51.468;5.814;2023-02-02T09:24:14;102047.91;;;8.00;100.00
60244;BME280;46106;51.468;5.814;2023-02-02T09:26:39;102054.03;;;8.05;100.00
60244;BME280;46106;51.468;5.814;2023-02-02T09:29:06;102056.75;;;8.05;100.00
60244;BME280;46106;51.468;5.814;2023-02-02T09:31:34;102063.69;;;8.12;100.00
60244;BME280;46106;51.468;5.814;2023-02-02T09:34:05;102063.19;;;8.04;100.00
60244;BME280;46106;51.468;5.814;2023-02-02T09:36:31;102066.72;;;8.06;100.00
60244;BME280;46106;51.468;5.814;2023-02-02T09:38:57;102073.81;;;8.10;100.00
60244;BME280;46106;51.468;5.814;2023-02-02T09:47:17;102085.59;;;8.10;100.00
60244;BME280;46106;51.468;5.814;2023-02-02T09:50:00;102083.59;;;8.14;100.00
60244;BME280;46106;51.468;5.814;2023-02-02T09:52:41;102087.97;;;8.18;100.00
60244;BME280;46106;51.468;5.814;2023-02-02T09:57:41;102101.28;;;8.24;100.00
60244;BME280;46106;51.468;5.814;2023-02-02T10:00:30;102085.06;;;8.21;100.00
60244;BME280;46106;51.468;5.814;2023-02-02T10:03:01;102101.94;;;8.29;100.00
60244;BME280;46106;51.468;5.814;2023-02-02T10:06:03;102105.47;;;8.32;100.00
60244;BME280;46106;51.468;5.814;2023-02-02T10:08:33;102102.34;;;8.39;100.00
60244;BME280;46106;51.468;5.814;2023-02-02T10:11:03;102108.41;;;8.46;100.00
60244;BME280;46106;51.468;5.814;2023-02-02T10:13:32;102098.59;;;8.42;100.00
60244;BME280;46106;51.468;5.814;2023-02-02T10:16:04;102109.59;;;8.59;100.00
60244;BME280;46106;51.468;5.814;2023-02-02T10:21:39;102114.50;;;8.53;100.00
60244;BME280;46106;51.468;5.814;2023-02-02T10:24:19;102123.91;;;8.64;100.00
60244;BME280;46106;51.468;5.814;2023-02-02T10:26:52;102112.31;;;8.59;100.00
60244;BME280;46106;51.468;5.814;2023-02-02T10:32:11;102118.34;;;8.66;100.00
60244;BME280;46106;51.468;5.814;2023-02-02T10:40:29;102123.91;;;8.64;100.00
60244;BME280;46106;51.468;5.814;2023-02-02T10:46:05;102125.00;;;8.60;100.00
60244;BME280;46106;51.468;5.814;2023-02-02T10:48:35;102121.25;;;8.63;100.00
60244;BME280;46106;51.468;5.814;2023-02-02T10:51:05;102121.97;;;8.67;100.00
60244;BME280;46106;51.468;5.814;2023-02-02T10:53:35;102120.19;;;8.65;100.00
60244;BME280;46106;51.468;5.814;2023-02-02T10:56:05;102131.84;;;8.69;100.00
60244;BME280;46106;51.468;5.814;2023-02-02T10:58:42;102107.66;;;8.61;100.00
60244;BME280;46106;51.468;5.814;2023-02-02T11:01:10;102124.25;;;8.76;100.00
60244;BME280;46106;51.468;5.814;2023-02-02T11:03:37;102121.25;;;8.80;100.00
60244;BME280;46106;51.468;5.814;2023-02-02T11:06:05;102130.66;;;8.75;100.00
60244;BME280;46106;51.468;5.814;2023-02-02T11:08:53;102130.34;;;8.81;100.00
60244;BME280;46106;51.468;5.814;2023-02-02T11:11:30;102129.53;;;8.79;100.00
60244;BME280;46106;51.468;5.814;2023-02-02T11:16:38;102145.44;;;8.88;100.00
60244;BME280;46106;51.468;5.814;2023-02-02T11:21:44;102144.94;;;8.80;100.00
60244;BME280;46106;51.468;5.814;2023-02-02T11:24:29;102144.94;;;8.80;100.00
60244;BME280;46106;51.468;5.814;2023-02-02T11:29:41;102127.38;;;8.86;100.00
60244;BME280;46106;51.468;5.814;2023-02-02T11:32:36;102128.41;;;8.83;100.00
60244;BME280;46106;51.468;5.814;2023-02-02T11:35:17;102129.44;;;8.80;100.00
60244;BME280;46106;51.468;5.814;2023-02-02T11:40:35;102127.13;;;8.90;100.00
60244;BME280;46106;51.468;5.814;2023-02-02T11:43:04;102136.13;;;8.92;100.00
60244;BME280;46106;51.468;5.814;2023-02-02T11:45:38;102143.50;;;8.90;100.00
60244;BME280;46106;51.468;5.814;2023-02-02T11:48:19;102141.75;;;8.89;100.00
60244;BME280;46106;51.468;5.814;2023-02-02T11:50:47;102134.28;;;8.93;100.00
60244;BME280;46106;51.468;5.814;2023-02-02T11:53:31;102128.19;;;8.88;100.00
60244;BME280;46106;51.468;5.814;2023-02-02T11:56:01;102133.72;;;8.86;100.00
60244;BME280;46106;51.468;5.814;2023-02-02T11:58:55;102126.25;;;8.90;100.00
60244;BME280;46106;51.468;5.814;2023-02-02T12:01:33;102119.03;;;8.89;100.00
60244;BME280;46106;51.468;5.814;2023-02-02T12:04:01;102108.19;;;8.87;100.00
60244;BME280;46106;51.468;5.814;2023-02-02T12:06:35;102114.81;;;8.81;100.00
60244;BME280;46106;51.468;5.814;2023-02-02T12:09:10;102120.22;;;8.83;100.00
60244;BME280;46106;51.468;5.814;2023-02-02T12:11:59;102117.19;;;8.89;100.00
60244;BME280;46106;51.468;5.814;2023-02-02T12:17:43;102112.66;;;8.88;100.00
60244;BME280;46106;51.468;5.814;2023-02-02T12:20:25;102115.41;;;8.88;100.00
60244;BME280;46106;51.468;5.814;2023-02-02T12:28:38;102115.47;;;8.69;100.00
60244;BME280;46106;51.468;5.814;2023-02-02T12:39:18;102111.31;;;8.79;100.00
60244;BME280;46106;51.468;5.814;2023-02-02T12:42:09;102102.69;;;8.70;100.00
60244;BME280;46106;51.468;5.814;2023-02-02T13:01:23;102092.13;;;8.81;100.00
60244;BME280;46106;51.468;5.814;2023-02-02T13:04:21;102098.13;;;8.88;100.00
60244;BME280;46106;51.468;5.814;2023-02-02T13:09:32;102091.63;;;8.90;100.00
60244;BME280;46106;51.468;5.814;2023-02-02T13:12:05;102107.59;;;8.98;100.00
60244;BME280;46106;51.468;5.814;2023-02-02T13:14:35;102094.34;;;8.90;100.00
60244;BME280;46106;51.468;5.814;2023-02-02T13:17:16;102099.56;;;8.95;100.00
60244;BME280;46106;51.468;5.814;2023-02-02T13:19:52;102093.53;;;8.88;100.00
60244;BME280;46106;51.468;5.814;2023-02-02T13:22:45;102093.88;;;8.99;100.00
60244;BME280;46106;51.468;5.814;2023-02-02T13:25:52;102087.22;;;8.88;100.00
60244;BME280;46106;51.468;5.814;2023-02-02T13:31:39;102090.03;;;8.86;100.00
60244;BME280;46106;51.468;5.814;2023-02-02T13:34:23;102107.84;;;8.93;100.00
60244;BME280;46106;51.468;5.814;2023-02-02T13:36:55;102100.88;;;8.88;100.00
60244;BME280;46106;51.468;5.814;2023-02-02T13:39:32;102096.19;;;8.90;100.00
60244;BME280;46106;51.468;5.814;2023-02-02T13:42:00;102093.38;;;8.91;100.00
60244;BME280;46106;51.468;5.814;2023-02-02T13:44:34;102095.50;;;9.04;100.00
60244;BME280;46106;51.468;5.814;2023-02-02T13:47:08;102087.78;;;8.94;100.00
60244;BME280;46106;51.468;5.814;2023-02-02T13:49:40;102080.53;;;8.93;100.00
60244;BME280;46106;51.468;5.814;2023-02-02T13:52:38;102091.28;;;8.96;100.00
60244;BME280;46106;51.468;5.814;2023-02-02T14:01:57;102081.91;;;8.85;100.00
60244;BME280;46106;51.468;5.814;2023-02-02T14:05:47;102091.81;;;8.87;100.00
60244;BME280;46106;51.468;5.814;2023-02-02T14:08:17;102097.97;;;9.08;100.00
60244;BME280;46106;51.468;5.814;2023-02-02T14:10:56;102094.66;;;9.01;100.00
60244;BME280;46106;51.468;5.814;2023-02-02T14:16:41;102113.78;;;9.01;100.00
60244;BME280;46106;51.468;5.814;2023-02-02T14:19:45;102104.72;;;9.01;100.00
60244;BME280;46106;51.468;5.814;2023-02-02T14:32:27;102111.56;;;8.92;100.00
60244;BME280;46106;51.468;5.814;2023-02-02T14:34:52;102126.88;;;8.95;100.00
60244;BME280;46106;51.468;5.814;2023-02-02T14:45:33;102118.50;;;8.80;100.00
60244;BME280;46106;51.468;5.814;2023-02-02T14:48:09;102123.47;;;8.72;100.00
60244;BME280;46106;51.468;5.814;2023-02-02T14:56:08;102126.41;;;8.69;100.00
60244;BME280;46106;51.468;5.814;2023-02-02T14:58:54;102128.44;;;8.64;100.00
60244;BME280;46106;51.468;5.814;2023-02-02T15:01:28;102133.47;;;8.54;100.00
60244;BME280;46106;51.468;5.814;2023-02-02T15:04:27;102135.19;;;8.57;100.00
60244;BME280;46106;51.468;5.814;2023-02-02T15:09:51;102142.72;;;8.33;100.00
60244;BME280;46106;51.468;5.814;2023-02-02T15:12:42;102142.56;;;8.36;100.00
60244;BME280;46106;51.468;5.814;2023-02-02T15:15:21;102149.59;;;8.22;100.00
60244;BME280;46106;51.468;5.814;2023-02-02T15:17:59;102151.78;;;8.14;100.00
60244;BME280;46106;51.468;5.814;2023-02-02T15:23:05;102147.66;;;8.24;100.00
60244;BME280;46106;51.468;5.814;2023-02-02T15:25:40;102144.47;;;8.15;100.00
60244;BME280;46106;51.468;5.814;2023-02-02T15:30:33;102145.53;;;8.12;100.00
60244;BME280;46106;51.468;5.814;2023-02-02T15:33:06;102151.22;;;8.07;100.00
60244;BME280;46106;51.468;5.814;2023-02-02T15:35:37;102155.13;;;8.02;100.00